Time;durP1;ratioP1;P1;durP2;ratioP2;P2;SDS_P1;SDS_P2;PMS_P1;PMS_P2;Temp;Humidity;BMP_temperature;BMP_pressure;BME280_temperature;BME280_humidity;BME280_pressure;Samples;Min_cycle;Max_cycle;Signal;HPM_P1;HPM_P2
2022/09/11 00:01:24;;;;;;;13.27;7.25;;;15.90;93.30;;;;;;5031563;28;20086;-81
2022/09/11 00:03:53;;;;;;;12.20;7.80;;;15.80;93.30;;;;;;5040621;28;20140;-80
2022/09/11 00:06:22;;;;;;;10.32;6.65;;;15.80;93.30;;;;;;5014327;28;20043;-81
2022/09/11 00:09:02;;;;;;;13.52;9.07;;;15.80;93.40;;;;;;5055727;28;20097;-82
2022/09/11 00:11:32;;;;;;;13.13;8.68;;;15.70;93.30;;;;;;5057116;28;20050;-82
2022/09/11 00:13:59;;;;;;;12.77;8.63;;;15.70;93.40;;;;;;5066746;28;20498;-82
2022/09/11 00:16:28;;;;;;;12.75;8.32;;;15.70;93.40;;;;;;5063129;28;20047;-81
2022/09/11 00:18:57;;;;;;;13.32;8.68;;;15.60;93.40;;;;;;5040333;28;20515;-80
2022/09/11 00:21:25;;;;;;;12.45;7.88;;;15.60;93.40;;;;;;5056278;28;20126;-80
2022/09/11 00:23:52;;;;;;;13.98;8.27;;;15.50;93.40;;;;;;5048223;28;20561;-80
2022/09/11 00:26:20;;;;;;;12.88;7.70;;;15.50;93.70;;;;;;5037532;28;20051;-80
2022/09/11 00:28:49;;;;;;;17.38;9.07;;;15.50;93.50;;;;;;5052716;28;20047;-80
2022/09/11 00:31:18;;;;;;;10.98;6.88;;;15.50;93.50;;;;;;5050779;28;20059;-80
2022/09/11 00:33:45;;;;;;;13.98;8.45;;;15.50;93.50;;;;;;5054243;28;20071;-80
2022/09/11 00:36:16;;;;;;;14.38;8.38;;;15.40;93.50;;;;;;5039834;28;20032;-80
2022/09/11 00:38:44;;;;;;;13.68;8.75;;;15.40;93.50;;;;;;5063024;28;20444;-81
2022/09/11 00:41:14;;;;;;;11.75;7.63;;;15.40;93.60;;;;;;5053084;28;20052;-79
2022/09/11 00:43:56;;;;;;;11.95;7.10;;;15.40;93.60;;;;;;5073382;28;20040;-80
2022/09/11 00:46:30;;;;;;;12.35;7.68;;;15.40;93.60;;;;;;5067217;28;20492;-82
2022/09/11 00:49:00;;;;;;;13.10;7.47;;;15.30;93.90;;;;;;5063668;28;20047;-82
2022/09/11 00:51:32;;;;;;;15.80;9.38;;;15.30;93.60;;;;;;5041733;28;20053;-81
2022/09/11 00:54:02;;;;;;;11.60;7.35;;;15.30;93.70;;;;;;5059225;28;20090;-82
2022/09/11 00:56:34;;;;;;;12.32;8.20;;;15.30;93.70;;;;;;5053908;28;20063;-82
2022/09/11 00:59:03;;;;;;;12.35;7.80;;;15.30;94.00;;;;;;5050869;28;20085;-82
2022/09/11 01:01:30;;;;;;;10.93;7.25;;;15.20;93.70;;;;;;5049136;28;20063;-82
2022/09/11 01:04:02;;;;;;;12.43;7.88;;;15.20;93.70;;;;;;5058408;28;20504;-81
2022/09/11 01:06:29;;;;;;;11.80;6.78;;;15.20;93.70;;;;;;5060333;28;20066;-82
2022/09/11 01:08:58;;;;;;;12.25;7.88;;;15.20;93.70;;;;;;5041346;28;20423;-82
2022/09/11 01:11:52;;;;;;;11.75;7.15;;;15.20;93.70;;;;;;5054861;28;20135;-82
2022/09/11 01:14:25;;;;;;;9.88;6.10;;;15.20;93.70;;;;;;5056796;28;20086;-82
2022/09/11 01:17:26;;;;;;;9.65;6.15;;;15.20;93.80;;;;;;5067462;28;20047;-81
2022/09/11 01:20:44;;;;;;;11.50;6.70;;;15.30;93.70;;;;;;5066440;28;20071;-82
2022/09/11 01:23:39;;;;;;;10.77;6.13;;;15.20;93.70;;;;;;5030282;28;20463;-82
2022/09/11 01:26:33;;;;;;;11.18;7.03;;;15.20;93.70;;;;;;5088569;28;20037;-82
2022/09/11 01:29:18;;;;;;;10.45;5.68;;;15.20;93.70;;;;;;5077762;28;20120;-82
2022/09/11 01:32:19;;;;;;;11.70;6.50;;;15.20;93.70;;;;;;5067501;28;20043;-82
2022/09/11 01:35:18;;;;;;;10.60;6.15;;;15.20;93.70;;;;;;5085441;28;20037;-81
2022/09/11 01:37:56;;;;;;;10.93;6.38;;;15.20;93.80;;;;;;5023793;28;20049;-82
2022/09/11 01:40:54;;;;;;;10.75;6.20;;;15.20;93.80;;;;;;5086324;28;20041;-81
2022/09/11 01:43:25;;;;;;;11.65;5.97;;;15.20;93.70;;;;;;5090874;28;20052;-82
2022/09/11 01:45:55;;;;;;;;;;;15.20;93.80;;;;;;5051977;28;20040;-82
2022/09/11 01:48:30;;;;;;;10.68;6.50;;;15.20;93.70;;;;;;5063908;28;19967;-81
2022/09/11 01:51:00;;;;;;;12.85;7.20;;;15.20;93.80;;;;;;5060540;28;20036;-81
2022/09/11 01:53:33;;;;;;;13.15;7.32;;;15.20;93.80;;;;;;5045368;28;20071;-81
2022/09/11 01:56:15;;;;;;;10.38;6.18;;;15.20;93.80;;;;;;5044041;28;20043;-81
2022/09/11 01:58:46;;;;;;;9.98;6.22;;;15.20;93.80;;;;;;5054483;28;20040;-80
2022/09/11 02:01:23;;;;;;;11.00;5.97;;;15.20;93.80;;;;;;5057138;28;20052;-81
2022/09/11 02:04:09;;;;;;;10.10;6.07;;;15.10;94.00;;;;;;5057060;28;20048;-81
2022/09/11 02:06:46;;;;;;;12.20;7.10;;;15.10;93.80;;;;;;5040572;28;20466;-81
2022/09/11 02:09:21;;;;;;;10.45;5.90;;;15.10;93.80;;;;;;5058925;28;20412;-81
2022/09/11 02:11:53;;;;;;;10.90;6.32;;;15.10;93.80;;;;;;5067358;28;20070;-81
2022/09/11 02:14:30;;;;;;;11.77;5.95;;;15.10;93.80;;;;;;5059368;28;20044;-80
2022/09/11 02:17:14;;;;;;;10.77;6.05;;;15.10;93.80;;;;;;5066553;28;20424;-80
2022/09/11 02:19:41;;;;;;;11.98;5.70;;;15.10;93.80;;;;;;5040061;28;20476;-81
2022/09/11 02:22:09;;;;;;;11.05;6.18;;;15.00;93.80;;;;;;5034297;28;20032;-80
2022/09/11 02:24:36;;;;;;;10.70;5.78;;;15.00;93.80;;;;;;5060255;28;20062;-80
2022/09/11 02:27:07;;;;;;;11.38;5.72;;;15.00;93.80;;;;;;5056295;28;20079;-80
2022/09/11 02:29:35;;;;;;;10.07;5.85;;;15.00;93.80;;;;;;5043801;28;20048;-80
2022/09/11 02:32:03;;;;;;;10.90;5.85;;;14.90;93.80;;;;;;5064456;28;20036;-81
2022/09/11 02:34:35;;;;;;;11.10;6.13;;;14.90;93.80;;;;;;5043285;28;20056;-80
2022/09/11 02:37:17;;;;;;;12.80;6.75;;;14.90;93.80;;;;;;5049786;28;20128;-81
2022/09/11 02:40:10;;;;;;;9.32;5.47;;;14.90;93.90;;;;;;5039798;28;20131;-80
2022/09/11 02:42:47;;;;;;;;;;;14.90;93.90;;;;;;5056642;28;20130;-80
2022/09/11 02:45:30;;;;;;;10.02;5.18;;;14.80;93.90;;;;;;5069480;28;20008;-81
2022/09/11 02:48:35;;;;;;;12.73;7.00;;;14.80;93.90;;;;;;5056219;28;20134;-81
2022/09/11 02:51:10;;;;;;;12.55;6.05;;;14.80;93.90;;;;;;5048952;28;20127;-81
2022/09/11 02:54:01;;;;;;;12.07;6.38;;;14.80;94.00;;;;;;5064218;28;20805;-81
2022/09/11 02:56:43;;;;;;;12.52;6.95;;;14.80;93.90;;;;;;5063054;28;20044;-81
2022/09/11 02:59:20;;;;;;;12.75;6.75;;;14.70;93.90;;;;;;5049613;28;20036;-81
2022/09/11 03:01:53;;;;;;;11.23;5.97;;;14.70;93.90;;;;;;5069891;28;20492;-81
2022/09/11 03:04:24;;;;;;;13.23;6.63;;;14.70;94.00;;;;;;5062891;28;20495;-81
2022/09/11 03:06:53;;;;;;;11.13;6.10;;;14.60;94.00;;;;;;5049679;28;20472;-81
2022/09/11 03:09:20;;;;;;;11.68;6.25;;;14.70;94.00;;;;;;5050132;28;20055;-81
2022/09/11 03:11:51;;;;;;;11.55;5.43;;;14.60;93.90;;;;;;5050121;28;20040;-81
2022/09/11 03:14:18;;;;;;;11.20;5.53;;;14.70;94.00;;;;;;5054123;28;20070;-81
2022/09/11 03:16:46;;;;;;;11.60;6.20;;;14.60;93.90;;;;;;5015045;28;20429;-81
2022/09/11 03:19:14;;;;;;;11.45;6.15;;;14.60;93.90;;;;;;5049690;28;20045;-81
2022/09/11 03:21:41;;;;;;;11.45;6.13;;;14.60;93.90;;;;;;5028469;28;20033;-82
2022/09/11 03:24:09;;;;;;;9.25;5.93;;;14.50;93.90;;;;;;5036905;28;20044;-81
2022/09/11 03:26:37;;;;;;;10.57;5.72;;;14.60;94.00;;;;;;5023149;28;20032;-81
2022/09/11 03:29:04;;;;;;;11.73;6.05;;;14.50;93.90;;;;;;5052780;28;20047;-81
2022/09/11 03:31:31;;;;;;;11.52;6.50;;;14.50;93.90;;;;;;5054357;28;20048;-81
2022/09/11 03:34:05;;;;;;;11.60;6.45;;;14.50;93.90;;;;;;5026018;28;20051;-81
2022/09/11 03:36:33;;;;;;;11.95;6.10;;;14.50;93.90;;;;;;5042895;28;20044;-81
2022/09/11 03:39:01;;;;;;;12.27;6.63;;;14.40;93.90;;;;;;5048431;28;20396;-82
2022/09/11 03:41:29;;;;;;;12.15;6.00;;;14.40;94.00;;;;;;5057885;28;20040;-81
2022/09/11 03:43:56;;;;;;;13.15;7.32;;;14.40;94.00;;;;;;5054645;28;20131;-81
2022/09/11 03:46:24;;;;;;;9.30;5.13;;;14.40;94.00;;;;;;5054722;28;20055;-81
2022/09/11 03:48:52;;;;;;;11.27;5.63;;;14.40;94.00;;;;;;5058327;28;20043;-82
2022/09/11 03:51:20;;;;;;;8.93;5.25;;;14.40;94.30;;;;;;5038876;28;20056;-81
2022/09/11 03:53:47;;;;;;;11.35;5.22;;;14.30;94.00;;;;;;5053890;28;20045;-81
2022/09/11 03:56:14;;;;;;;10.60;5.70;;;14.30;94.00;;;;;;5038249;28;20131;-81
2022/09/11 03:58:46;;;;;;;11.45;5.22;;;14.30;94.00;;;;;;5039976;28;20090;-81
2022/09/11 04:01:17;;;;;;;9.40;5.55;;;14.30;94.00;;;;;;5053318;28;20385;-82
2022/09/11 04:03:45;;;;;;;10.20;5.60;;;14.20;94.00;;;;;;5041685;28;20037;-82
2022/09/11 04:06:21;;;;;;;10.25;4.75;;;14.30;94.00;;;;;;5052732;28;20131;-82
2022/09/11 04:08:48;;;;;;;9.13;4.80;;;14.20;94.00;;;;;;5038525;28;20074;-81
2022/09/11 04:11:20;;;;;;;8.52;4.50;;;14.20;94.10;;;;;;5021557;28;20045;-82
2022/09/11 04:13:50;;;;;;;12.73;5.35;;;14.20;94.10;;;;;;5056675;28;20556;-81
2022/09/11 04:16:19;;;;;;;9.00;5.20;;;14.20;94.10;;;;;;5032599;28;20082;-81
2022/09/11 04:18:52;;;;;;;9.48;4.93;;;14.20;94.10;;;;;;5039369;28;20041;-81
2022/09/11 04:21:20;;;;;;;7.88;4.28;;;14.10;94.10;;;;;;5038447;28;20048;-81
2022/09/11 04:23:55;;;;;;;7.93;4.30;;;14.10;94.10;;;;;;5068274;28;20150;-82
2022/09/11 04:26:25;;;;;;;10.13;4.85;;;14.00;94.10;;;;;;5039384;28;20040;-81
2022/09/11 04:28:59;;;;;;;9.00;4.95;;;14.00;94.10;;;;;;5040737;28;20049;-81
2022/09/11 04:31:28;;;;;;;8.85;4.68;;;14.10;94.10;;;;;;5062127;28;20044;-82
2022/09/11 04:33:56;;;;;;;8.57;4.35;;;14.00;94.10;;;;;;5041197;28;20055;-82
2022/09/11 04:36:30;;;;;;;7.40;4.13;;;14.00;94.10;;;;;;5059262;28;20059;-81
2022/09/11 04:38:59;;;;;;;8.65;4.72;;;14.00;94.10;;;;;;5044253;28;20072;-81
2022/09/11 04:41:27;;;;;;;8.13;4.70;;;14.00;94.10;;;;;;5038700;28;20079;-79
2022/09/11 04:43:59;;;;;;;8.93;4.70;;;13.90;94.00;;;;;;5059238;28;20044;-80
2022/09/11 04:46:33;;;;;;;7.55;3.60;;;13.90;94.10;;;;;;5070739;28;20070;-80
2022/09/11 04:49:03;;;;;;;7.55;4.45;;;13.90;94.10;;;;;;5028607;28;20044;-80
2022/09/11 04:51:33;;;;;;;6.57;3.83;;;13.90;94.10;;;;;;5041909;28;20544;-80
2022/09/11 04:54:01;;;;;;;9.05;4.45;;;13.90;94.00;;;;;;5051436;28;20384;-81
2022/09/11 04:56:36;;;;;;;9.10;3.92;;;13.80;94.00;;;;;;5039617;28;20051;-80
2022/09/11 04:59:12;;;;;;;8.30;4.90;;;13.80;94.00;;;;;;5033645;28;20131;-80
2022/09/11 05:01:42;;;;;;;9.48;4.40;;;13.80;93.90;;;;;;5057950;28;20044;-80
2022/09/11 05:04:11;;;;;;;9.13;4.25;;;13.80;93.90;;;;;;5055580;28;20404;-81
2022/09/11 05:06:41;;;;;;;9.85;4.22;;;13.70;94.00;;;;;;5048089;28;20326;-80
2022/09/11 05:09:11;;;;;;;8.75;4.15;;;13.70;94.00;;;;;;5052422;28;20094;-80
2022/09/11 05:11:38;;;;;;;6.85;3.55;;;13.70;94.00;;;;;;5040720;28;20044;-80
2022/09/11 05:14:05;;;;;;;6.53;3.45;;;13.70;94.00;;;;;;5024935;28;20064;-81
2022/09/11 05:16:36;;;;;;;7.40;4.03;;;13.70;94.00;;;;;;5054054;28;20056;-81
2022/09/11 05:19:04;;;;;;;7.07;3.72;;;13.70;94.00;;;;;;5065924;28;20051;-81
2022/09/11 05:21:33;;;;;;;7.50;3.95;;;13.70;93.90;;;;;;5029849;28;20040;-81
2022/09/11 05:24:01;;;;;;;7.38;3.78;;;13.70;93.90;;;;;;5055016;28;20075;-81
2022/09/11 05:26:34;;;;;;;7.25;4.00;;;13.70;94.00;;;;;;5053841;28;20044;-81
2022/09/11 05:29:10;;;;;;;6.30;3.55;;;13.70;93.90;;;;;;5052074;28;20068;-80
2022/09/11 05:31:43;;;;;;;8.82;4.25;;;13.70;94.00;;;;;;5074112;28;20068;-80
2022/09/11 05:34:13;;;;;;;7.50;3.55;;;13.70;94.00;;;;;;5052846;28;20121;-81
2022/09/11 05:36:40;;;;;;;7.63;4.15;;;13.70;94.00;;;;;;5050445;28;20054;-81
2022/09/11 05:39:09;;;;;;;7.22;3.63;;;13.70;93.90;;;;;;5030654;28;20071;-81
2022/09/11 05:41:37;;;;;;;6.07;3.08;;;13.70;93.90;;;;;;5036664;28;20558;-81
2022/09/11 05:44:05;;;;;;;6.65;3.28;;;13.70;93.90;;;;;;5062864;28;20041;-81
2022/09/11 05:46:33;;;;;;;7.55;3.85;;;13.80;94.10;;;;;;5044151;28;20059;-81
2022/09/11 05:49:02;;;;;;;6.88;3.72;;;13.80;93.80;;;;;;5070396;28;20143;-81
2022/09/11 05:51:29;;;;;;;8.60;4.05;;;13.80;93.70;;;;;;5024436;28;20342;-81
2022/09/11 05:53:57;;;;;;;7.65;3.95;;;13.80;93.70;;;;;;5056072;28;20041;-81
2022/09/11 05:56:27;;;;;;;7.47;3.97;;;13.90;93.60;;;;;;5024595;28;20076;-81
2022/09/11 05:58:57;;;;;;;6.47;3.35;;;13.90;93.60;;;;;;5059031;28;20036;-81
2022/09/11 06:01:31;;;;;;;7.35;3.70;;;13.90;93.60;;;;;;5026123;28;20110;-81
2022/09/11 06:04:13;;;;;;;6.35;3.25;;;14.00;93.70;;;;;;5044903;28;20131;-81
2022/09/11 06:06:46;;;;;;;7.72;3.83;;;14.00;93.60;;;;;;5063959;28;20044;-81
2022/09/11 06:09:14;;;;;;;7.07;3.78;;;14.10;93.60;;;;;;5052458;28;20076;-81
2022/09/11 06:11:42;;;;;;;8.32;4.53;;;14.20;93.60;;;;;;5075454;28;20338;-81
2022/09/11 06:14:11;;;;;;;8.20;3.60;;;14.20;93.50;;;;;;5058525;28;20094;-81
2022/09/11 06:16:40;;;;;;;7.78;4.57;;;14.30;93.40;;;;;;5056764;28;20087;-81
2022/09/11 06:19:11;;;;;;;6.72;3.75;;;14.30;93.40;;;;;;5039994;28;20048;-81
2022/09/11 06:21:38;;;;;;;8.10;4.25;;;14.40;93.30;;;;;;5057565;28;20047;-81
2022/09/11 06:24:17;;;;;;;6.80;3.85;;;14.50;93.30;;;;;;5056372;28;20040;-80
2022/09/11 06:26:45;;;;;;;8.10;4.10;;;14.60;93.30;;;;;;5042368;28;20071;-81
2022/09/11 06:29:14;;;;;;;7.57;4.18;;;14.60;93.20;;;;;;5040533;28;20132;-81
2022/09/11 06:31:47;;;;;;;6.75;3.70;;;14.70;93.20;;;;;;5023022;28;20051;-81
2022/09/11 06:34:15;;;;;;;6.20;3.45;;;14.80;93.10;;;;;;5018169;28;20053;-80
2022/09/11 06:36:42;;;;;;;7.07;3.55;;;14.90;93.10;;;;;;5034113;28;20051;-80
2022/09/11 06:39:12;;;;;;;7.53;3.45;;;14.90;93.10;;;;;;5052048;28;20041;-80
2022/09/11 06:41:39;;;;;;;6.35;3.63;;;15.00;93.10;;;;;;5035949;28;20090;-81
2022/09/11 06:44:11;;;;;;;8.43;4.07;;;15.10;93.10;;;;;;5024819;28;20041;-81
2022/09/11 06:46:39;;;;;;;6.65;3.65;;;15.20;93.10;;;;;;5044460;28;20080;-81
2022/09/11 06:49:08;;;;;;;7.30;4.13;;;15.20;93.00;;;;;;5015284;28;20045;-81
2022/09/11 06:51:55;;;;;;;6.65;3.97;;;15.30;93.00;;;;;;5030905;28;20525;-81
2022/09/11 06:54:22;;;;;;;7.07;3.95;;;15.40;93.00;;;;;;5017866;28;20042;-82
2022/09/11 06:56:51;;;;;;;6.47;3.83;;;15.50;92.90;;;;;;4999077;28;20048;-81
2022/09/11 06:59:18;;;;;;;9.10;4.68;;;15.50;92.90;;;;;;5031017;28;20382;-81
2022/09/11 07:01:45;;;;;;;7.55;3.75;;;15.60;92.80;;;;;;5016244;28;20038;-81
2022/09/11 07:04:12;;;;;;;7.13;4.22;;;15.70;92.80;;;;;;5015808;28;20041;-80
2022/09/11 07:06:41;;;;;;;8.88;4.55;;;15.80;92.70;;;;;;5000049;28;20084;-83
2022/09/11 07:09:11;;;;;;;8.63;4.90;;;15.90;92.70;;;;;;5017674;28;20112;-86
2022/09/11 07:11:45;;;;;;;12.48;6.88;;;15.90;92.60;;;;;;5010610;28;20048;-89
2022/09/11 07:14:32;;;;;;;10.77;6.15;;;16.00;92.60;;;;;;5033604;28;20050;-89
2022/09/11 07:17:54;;;;;;;10.25;5.93;;;16.10;92.50;;;;;;4993274;28;20050;-89
2022/09/11 07:24:48;;;;;;;10.18;5.57;;;16.30;92.40;;;;;;4993790;28;20427;-89
2022/09/11 07:27:48;;;;;;;10.98;6.38;;;16.40;92.40;;;;;;4919661;29;20422;-89
2022/09/11 07:35:56;;;;;;;10.40;6.25;;;16.60;92.30;;;;;;4924484;29;20064;-84
2022/09/11 07:38:23;;;;;;;12.45;5.90;;;16.70;92.30;;;;;;4915218;29;20493;-84
2022/09/11 07:40:53;;;;;;;10.55;5.93;;;16.70;92.30;;;;;;4902296;29;20061;-84
2022/09/11 07:43:21;;;;;;;10.30;6.35;;;16.80;92.30;;;;;;4899305;29;20056;-87
2022/09/11 07:45:52;;;;;;;12.68;7.40;;;16.90;92.20;;;;;;4902598;29;20063;-87
2022/09/11 07:48:21;;;;;;;13.32;7.53;;;17.00;92.20;;;;;;4941804;28;20050;-90
2022/09/11 07:51:28;;;;;;;10.00;6.10;;;17.10;92.20;;;;;;4933601;28;20054;-90
2022/09/11 07:54:27;;;;;;;12.20;7.22;;;17.20;92.10;;;;;;4898892;29;20146;-90
2022/09/11 07:57:20;;;;;;;12.57;7.78;;;17.30;92.10;;;;;;4860483;29;20540;-89
2022/09/11 08:00:16;;;;;;;12.25;8.05;;;17.40;92.00;;;;;;4883115;29;20080;-90
2022/09/11 08:02:59;;;;;;;12.00;7.30;;;17.50;92.00;;;;;;4875199;29;20135;-87
2022/09/11 08:06:08;;;;;;;;;;;17.70;91.90;;;;;;4946445;28;20462;-90
2022/09/11 08:08:37;;;;;;;;;;;17.80;91.80;;;;;;4986640;28;19930;-91
2022/09/11 08:11:45;;;;;;;12.27;6.70;;;17.90;91.80;;;;;;4920802;29;20013;-87
2022/09/11 08:14:17;;;;;;;9.18;5.95;;;18.10;91.70;;;;;;4900211;29;20100;-85
2022/09/11 08:17:24;;;;;;;9.18;6.30;;;18.20;91.60;;;;;;4884379;29;20058;-83
2022/09/11 08:19:53;;;;;;;10.73;7.15;;;18.30;91.50;;;;;;4911261;29;20040;-83
2022/09/11 08:22:21;;;;;;;9.85;5.53;;;18.40;91.50;;;;;;4885499;29;20045;-81
2022/09/11 08:24:48;;;;;;;9.65;6.90;;;18.40;91.30;;;;;;4917813;29;20962;-83
2022/09/11 08:27:17;;;;;;;9.55;7.10;;;18.40;91.30;;;;;;4923501;29;20154;-83
2022/09/11 08:29:45;;;;;;;9.45;6.75;;;18.50;91.20;;;;;;4933154;29;20051;-83
2022/09/11 08:32:13;;;;;;;12.27;7.47;;;18.50;91.20;;;;;;4917626;29;20062;-83
2022/09/11 08:34:41;;;;;;;9.75;7.00;;;18.50;91.20;;;;;;4930545;28;20072;-82
2022/09/11 08:37:08;;;;;;;10.20;6.93;;;18.50;91.20;;;;;;4936121;28;20555;-83
2022/09/11 08:39:36;;;;;;;8.18;5.90;;;18.60;91.10;;;;;;4936657;29;20164;-83
2022/09/11 08:42:11;;;;;;;8.90;6.30;;;18.60;91.10;;;;;;4945442;28;20097;-83
2022/09/11 08:44:48;;;;;;;10.75;6.75;;;18.70;91.00;;;;;;4974626;28;20042;-83
2022/09/11 08:47:33;;;;;;;8.35;6.18;;;18.70;90.90;;;;;;4967483;28;20554;-83
2022/09/11 08:50:25;;;;;;;7.70;5.28;;;18.70;90.90;;;;;;5043590;28;20560;-82
2022/09/11 08:52:55;;;;;;;6.75;5.00;;;18.80;90.90;;;;;;5039966;28;20136;-83
2022/09/11 08:55:38;;;;;;;7.38;5.55;;;18.80;90.90;;;;;;5014864;28;20041;-83
2022/09/11 08:58:30;;;;;;;8.30;5.50;;;18.90;90.80;;;;;;5018808;28;20140;-83
2022/09/11 09:01:23;;;;;;;11.82;7.97;;;18.90;90.70;;;;;;5029021;28;20041;-83
2022/09/11 09:04:03;;;;;;;13.95;8.48;;;18.90;90.70;;;;;;5032066;28;20068;-83
2022/09/11 09:06:42;;;;;;;12.93;7.93;;;18.80;90.70;;;;;;5034888;28;20514;-83
2022/09/11 09:09:41;;;;;;;10.65;6.97;;;18.80;90.80;;;;;;5021659;28;20051;-83
2022/09/11 09:12:25;;;;;;;11.52;7.57;;;18.70;90.80;;;;;;5029933;28;20095;-83
2022/09/11 09:15:15;;;;;;;12.18;8.02;;;18.60;90.90;;;;;;5021067;28;20034;-82
2022/09/11 09:17:55;;;;;;;10.10;6.38;;;18.60;91.00;;;;;;5039409;28;20091;-83
2022/09/11 09:20:30;;;;;;;11.52;6.88;;;18.60;91.10;;;;;;5041964;28;20034;-90
2022/09/11 09:23:02;;;;;;;9.55;6.60;;;18.60;91.10;;;;;;5029859;28;20037;-82
2022/09/11 09:25:35;;;;;;;10.05;6.20;;;18.50;91.10;;;;;;5023420;28;20046;-83
2022/09/11 09:28:12;;;;;;;9.93;6.57;;;18.50;91.10;;;;;;5017706;28;20060;-82
2022/09/11 09:30:52;;;;;;;9.68;6.32;;;18.40;91.20;;;;;;5034147;28;20053;-78
2022/09/11 09:34:01;;;;;;;9.13;5.72;;;18.40;91.20;;;;;;5021596;28;20041;-82
2022/09/11 09:36:44;;;;;;;13.20;8.20;;;18.50;91.20;;;;;;5027868;28;20057;-83
2022/09/11 09:39:14;;;;;;;11.48;7.18;;;18.70;91.10;;;;;;5033928;28;20135;-80
2022/09/11 09:42:04;;;;;;;9.77;6.93;;;18.80;91.00;;;;;;5032947;28;20045;-81
2022/09/11 09:44:36;;;;;;;7.18;5.45;;;19.10;90.80;;;;;;5045471;28;20045;-83
2022/09/11 09:47:08;;;;;;;7.72;5.10;;;19.30;90.70;;;;;;5037425;28;20045;-81
2022/09/11 09:49:36;;;;;;;7.05;4.72;;;19.50;90.50;;;;;;5008776;28;20145;-81
2022/09/11 09:52:29;;;;;;;6.75;4.13;;;19.80;90.40;;;;;;5029185;28;20045;-81
2022/09/11 09:54:59;;;;;;;6.05;4.45;;;20.20;89.60;;;;;;5029192;28;20091;-81
2022/09/11 09:57:38;;;;;;;5.88;4.45;;;20.50;89.90;;;;;;5055825;28;20045;-81
2022/09/11 10:00:15;;;;;;;5.80;3.75;;;20.80;88.80;;;;;;5034203;28;20042;-83
2022/09/11 10:02:53;;;;;;;6.28;4.45;;;21.00;88.30;;;;;;5048938;28;20055;-83
2022/09/11 10:05:27;;;;;;;5.25;3.72;;;21.20;88.00;;;;;;5055398;28;20436;-85
2022/09/11 10:08:02;;;;;;;6.65;4.43;;;21.40;87.70;;;;;;5043606;28;20068;-85
2022/09/11 10:10:38;;;;;;;5.35;3.90;;;21.50;86.60;;;;;;5051972;28;20041;-82
2022/09/11 10:13:23;;;;;;;7.25;4.20;;;21.40;86.90;;;;;;5047115;28;20045;-83
2022/09/11 10:16:02;;;;;;;4.53;3.22;;;21.30;86.30;;;;;;5033161;28;20136;-82
2022/09/11 10:18:34;;;;;;;5.07;3.38;;;21.20;86.70;;;;;;5033384;28;20104;-82
2022/09/11 10:21:10;;;;;;;5.47;3.50;;;21.10;86.90;;;;;;5019610;28;20730;-84
2022/09/11 10:23:55;;;;;;;4.45;2.95;;;21.10;86.80;;;;;;5042972;28;20117;-83
2022/09/11 10:26:42;;;;;;;7.88;4.10;;;21.00;87.40;;;;;;5033117;28;20065;-84
2022/09/11 10:29:20;;;;;;;4.32;3.25;;;20.90;86.90;;;;;;5039371;28;20077;-86
2022/09/11 10:31:53;;;;;;;6.32;4.35;;;20.90;87.20;;;;;;5052262;28;20140;-84
2022/09/11 10:34:23;;;;;;;6.55;4.22;;;20.80;87.10;;;;;;5026085;28;20474;-85
2022/09/11 10:53:22;;;;;;;9.60;6.32;;;21.60;85.10;;;;;;5463443;23;20059;-81
2022/09/11 10:55:59;;;;;;;14.27;9.70;;;21.70;85.20;;;;;;4882147;29;20085;-85
2022/09/11 10:58:32;;;;;;;10.07;7.15;;;21.60;84.50;;;;;;4904585;29;20119;-84
2022/09/11 11:01:00;;;;;;;10.57;7.07;;;21.60;84.90;;;;;;4885108;29;20037;-85
2022/09/11 11:03:28;;;;;;;8.35;5.90;;;21.60;84.80;;;;;;4874716;29;20408;-83
2022/09/11 11:06:33;;;;;;;7.85;5.78;;;21.60;85.00;;;;;;4878306;29;20491;-85
2022/09/11 11:09:22;;;;;;;8.85;5.82;;;21.70;84.80;;;;;;4883959;29;20040;-88
2022/09/11 11:12:08;;;;;;;9.00;5.15;;;21.80;84.60;;;;;;4887103;29;20132;-87
2022/09/11 11:15:01;;;;;;;7.50;5.32;;;21.90;84.50;;;;;;4855111;29;20135;-87
2022/09/11 11:17:53;;;;;;;7.57;4.78;;;22.10;84.20;;;;;;4881348;29;20037;-87
2022/09/11 11:20:22;;;;;;;9.82;5.10;;;22.20;84.20;;;;;;4881076;29;20044;-86
2022/09/11 11:23:27;;;;;;;8.55;5.18;;;22.30;84.20;;;;;;4880688;29;20052;-83
2022/09/11 11:26:13;;;;;;;8.68;4.53;;;22.40;83.10;;;;;;4865367;29;20057;-83
2022/09/11 11:29:02;;;;;;;6.88;4.78;;;22.30;83.20;;;;;;4900683;29;20067;-83
2022/09/11 11:31:54;;;;;;;8.00;4.95;;;22.20;83.10;;;;;;4850709;29;20593;-83
2022/09/11 11:35:00;;;;;;;6.23;4.57;;;22.10;83.10;;;;;;4865543;29;20045;-84
2022/09/11 11:37:39;;;;;;;6.70;4.35;;;22.10;83.30;;;;;;4831460;29;20065;-82
2022/09/11 11:40:19;;;;;;;7.80;4.47;;;22.20;83.20;;;;;;4884974;29;20477;-83
2022/09/11 11:42:55;;;;;;;5.47;3.50;;;22.30;82.90;;;;;;4876115;29;20041;-83
2022/09/11 11:45:42;;;;;;;6.32;4.18;;;22.40;82.70;;;;;;4862476;29;20450;-84
2022/09/11 11:48:20;;;;;;;6.65;4.30;;;22.50;82.20;;;;;;4875055;29;20041;-83
2022/09/11 11:50:52;;;;;;;5.07;3.72;;;22.60;82.00;;;;;;4881132;29;20072;-83
2022/09/11 11:53:23;;;;;;;;;;;22.60;81.90;;;;;;4855145;29;20062;-83
2022/09/11 11:56:13;;;;;;;6.10;4.72;;;22.60;82.20;;;;;;4862680;29;19924;-83
2022/09/11 11:59:01;;;;;;;6.70;4.22;;;22.60;81.80;;;;;;4846911;29;20401;-83
2022/09/11 12:01:39;;;;;;;5.57;3.92;;;22.60;81.70;;;;;;4861784;29;20069;-84
2022/09/11 12:04:28;;;;;;;5.63;3.40;;;22.70;81.40;;;;;;4862281;29;20053;-84
2022/09/11 12:06:55;;;;;;;6.35;4.15;;;22.80;81.20;;;;;;4875205;29;20091;-84
2022/09/11 12:09:22;;;;;;;4.90;3.85;;;22.80;80.90;;;;;;4816781;29;20088;-83
2022/09/11 12:11:51;;;;;;;4.70;3.47;;;22.80;81.10;;;;;;4829853;29;20053;-80
2022/09/11 12:14:33;;;;;;;4.65;3.22;;;22.90;80.80;;;;;;4846476;29;20088;-81
2022/09/11 12:17:18;;;;;;;3.63;2.57;;;23.00;80.40;;;;;;4866294;29;20049;-80
2022/09/11 12:20:40;;;;;;;5.18;3.13;;;23.10;80.10;;;;;;4847953;29;20088;-82
2022/09/11 12:23:27;;;;;;;5.13;3.25;;;23.20;80.00;;;;;;4824320;29;21337;-84
2022/09/11 12:26:09;;;;;;;4.50;3.00;;;23.00;80.10;;;;;;4828887;29;20180;-83
2022/09/11 12:28:36;;;;;;;5.45;2.67;;;23.00;80.20;;;;;;4881371;29;20136;-83
2022/09/11 12:31:06;;;;;;;4.68;3.15;;;22.90;80.40;;;;;;4870062;29;20048;-85
2022/09/11 12:33:43;;;;;;;3.97;2.95;;;23.00;80.30;;;;;;4869925;29;20113;-83
2022/09/11 12:36:23;;;;;;;4.43;3.33;;;23.00;80.00;;;;;;4860497;29;20585;-84
2022/09/11 12:39:00;;;;;;;3.55;2.70;;;23.00;79.80;;;;;;4862900;29;20063;-83
2022/09/11 12:41:34;;;;;;;3.95;2.70;;;23.00;79.60;;;;;;4866621;29;20052;-85
2022/09/11 12:44:03;;;;;;;4.20;2.85;;;23.00;79.70;;;;;;4864639;29;20073;-86
2022/09/11 12:46:30;;;;;;;4.60;2.67;;;23.00;79.60;;;;;;4853779;29;20445;-85
2022/09/11 12:49:06;;;;;;;3.65;2.90;;;22.90;79.60;;;;;;4872173;29;20105;-86
2022/09/11 12:51:54;;;;;;;4.00;3.00;;;22.80;79.50;;;;;;4845563;29;20056;-84
2022/09/11 12:54:29;;;;;;;4.15;3.33;;;22.70;79.60;;;;;;4871707;29;20719;-87
2022/09/11 12:57:29;;;;;;;4.35;2.92;;;22.70;79.60;;;;;;4898705;29;20087;-86
2022/09/11 13:00:00;;;;;;;4.05;2.55;;;22.60;79.60;;;;;;4866818;29;20332;-84
2022/09/11 13:02:35;;;;;;;4.45;2.78;;;22.60;79.80;;;;;;4871640;29;20127;-85
2022/09/11 13:05:18;;;;;;;3.83;2.95;;;22.60;79.70;;;;;;4883494;29;20051;-84
2022/09/11 13:07:52;;;;;;;4.20;2.85;;;22.70;79.20;;;;;;4883900;29;20055;-85
2022/09/11 13:10:35;;;;;;;4.60;3.58;;;22.70;79.00;;;;;;4897266;29;20831;-85
2022/09/11 13:13:33;;;;;;;4.65;2.72;;;22.80;78.50;;;;;;4888428;29;20575;-85
2022/09/11 13:16:43;;;;;;;3.80;2.35;;;23.00;78.40;;;;;;4880382;29;20533;-85
2022/09/11 13:19:19;;;;;;;4.20;2.40;;;23.10;77.90;;;;;;4823860;29;20115;-86
2022/09/11 13:21:50;;;;;;;3.15;2.05;;;23.20;78.00;;;;;;4882682;29;20052;-86
2022/09/11 13:24:29;;;;;;;4.30;2.80;;;23.20;77.70;;;;;;4870939;29;20047;-86
2022/09/11 13:27:11;;;;;;;4.30;2.33;;;23.40;77.20;;;;;;4889491;29;20409;-84
2022/09/11 13:29:41;;;;;;;3.50;2.20;;;23.50;77.20;;;;;;4896512;29;20057;-84
2022/09/11 13:32:14;;;;;;;3.15;2.33;;;23.50;77.00;;;;;;4889148;29;20048;-85
2022/09/11 13:34:43;;;;;;;2.47;1.90;;;23.40;76.90;;;;;;4877461;29;20056;-85
2022/09/11 13:37:14;;;;;;;2.55;1.70;;;23.40;77.00;;;;;;4898672;29;20044;-82
2022/09/11 13:39:42;;;;;;;3.90;1.93;;;23.40;77.00;;;;;;4883388;29;20056;-82
2022/09/11 13:42:15;;;;;;;3.70;2.03;;;23.30;77.00;;;;;;4871156;29;20112;-81
2022/09/11 13:44:47;;;;;;;3.78;2.40;;;23.30;76.90;;;;;;4867805;29;20131;-79
2022/09/11 13:47:26;;;;;;;2.95;1.88;;;23.30;76.70;;;;;;4883096;29;20477;-81
2022/09/11 13:50:00;;;;;;;3.45;2.17;;;23.40;76.40;;;;;;4864524;29;20144;-80
2022/09/11 13:52:31;;;;;;;3.65;2.30;;;23.40;76.30;;;;;;4883284;29;20059;-80
2022/09/11 13:55:03;;;;;;;3.53;2.00;;;23.40;76.20;;;;;;4873055;29;20445;-80